Time;durP1;ratioP1;P1;durP2;ratioP2;P2;SDS_P1;SDS_P2;PMS_P1;PMS_P2;Temp;Humidity;BMP_temperature;BMP_pressure;BME280_temperature;BME280_humidity;BME280_pressure;Samples;Min_cycle;Max_cycle;Signal;HPM_P1;HPM_P2
2021/12/28 00:01:30;;;;;;;42.92;20.13;;;77.60;2022.40;;;;;;5094659;28;20020;-64
2021/12/28 00:03:56;;;;;;;44.15;18.77;;;77.50;1996.80;;;;;;5094581;28;20031;-64
2021/12/28 00:06:22;;;;;;;41.90;19.63;;;77.50;2022.40;;;;;;5094501;28;20373;-64
2021/12/28 00:08:48;;;;;;;48.85;21.02;;;77.50;2022.40;;;;;;5094295;28;20035;-64
2021/12/28 00:11:14;;;;;;;50.33;22.23;;;77.40;2048.00;;;;;;5093742;28;20018;-63
2021/12/28 00:13:43;;;;;;;39.42;17.63;;;77.50;2073.60;;;;;;5094192;28;20020;-64
2021/12/28 00:18:44;;;;;;;203.43;21.77;;;77.70;2176.00;;;;;;5114396;28;20024;-65
2021/12/28 00:21:10;;;;;;;37.85;17.08;;;102.40;2227.20;;;;;;5114581;28;20114;-65
2021/12/28 00:23:39;;;;;;;35.78;18.02;;;102.50;2227.20;;;;;;5095487;28;20028;-64
2021/12/28 00:26:07;;;;;;;28.00;14.93;;;102.60;2176.00;;;;;;5114349;28;20023;-64
2021/12/28 00:28:34;;;;;;;26.27;13.73;;;102.70;2073.60;;;;;;5114052;28;20484;-64
2021/12/28 00:31:00;;;;;;;20.33;10.90;;;102.80;2022.40;;;;;;5095655;28;20027;-65
2021/12/28 00:33:26;;;;;;;22.60;11.10;;;102.80;2073.60;;;;;;5114086;28;20022;-64
2021/12/28 00:35:52;;;;;;;17.65;9.80;;;102.80;2022.40;;;;;;5095253;28;20451;-64
2021/12/28 00:38:22;;;;;;;20.08;9.95;;;102.90;1971.20;;;;;;5114445;28;20027;-64
2021/12/28 00:40:50;;;;;;;23.23;11.23;;;102.90;2022.40;;;;;;5114489;28;20020;-64
2021/12/28 00:43:16;;;;;;;20.10;11.35;;;102.90;2022.40;;;;;;5096017;28;20031;-64
2021/12/28 00:45:42;;;;;;;19.90;10.18;;;103.00;1945.60;;;;;;5096063;28;20514;-64
2021/12/28 00:48:08;;;;;;;21.38;10.02;;;102.90;2022.40;;;;;;5113989;28;20035;-65
2021/12/28 00:50:34;;;;;;;19.00;9.88;;;103.00;2022.40;;;;;;5113856;28;20076;-63
2021/12/28 00:53:00;;;;;;;20.77;10.90;;;103.00;1945.60;;;;;;5114254;28;20028;-63
2021/12/28 00:55:27;;;;;;;18.67;9.85;;;103.10;1996.80;;;;;;5114213;28;20024;-63
2021/12/28 00:57:53;;;;;;;18.25;9.05;;;103.20;1996.80;;;;;;5113964;28;20030;-63
2021/12/28 01:00:27;;;;;;;17.17;9.43;;;103.10;1945.60;;;;;;5113957;28;20024;-63
2021/12/28 01:02:54;;;;;;;17.90;9.45;;;103.00;1971.20;;;;;;5113594;28;20106;-63
2021/12/28 01:05:21;;;;;;;18.20;9.43;;;103.00;2022.40;;;;;;5113878;28;20500;-63
2021/12/28 01:07:47;;;;;;;18.95;11.13;;;103.10;1971.20;;;;;;5114095;28;20063;-63
2021/12/28 01:10:17;;;;;;;21.52;10.02;;;102.90;1971.20;;;;;;5113875;28;20050;-61
2021/12/28 01:12:43;;;;;;;21.02;10.60;;;102.90;2022.40;;;;;;5111836;28;20035;-62
2021/12/28 01:15:11;;;;;;;20.38;10.70;;;102.90;1996.80;;;;;;5113795;28;20016;-63
2021/12/28 01:17:37;;;;;;;22.13;11.35;;;102.70;1996.80;;;;;;5114148;28;20020;-62
2021/12/28 01:20:07;;;;;;;19.92;10.52;;;102.70;1996.80;;;;;;5113877;28;20047;-62
2021/12/28 01:22:33;;;;;;;18.92;9.82;;;102.80;2048.00;;;;;;5113793;28;20027;-62
2021/12/28 01:24:59;;;;;;;19.52;11.07;;;102.70;2022.40;;;;;;5095209;28;20024;-63
2021/12/28 01:27:25;;;;;;;20.38;10.48;;;102.60;2022.40;;;;;;5113727;28;20039;-63
2021/12/28 01:29:51;;;;;;;22.15;11.00;;;102.70;2022.40;;;;;;5113823;28;20059;-62
2021/12/28 01:32:16;;;;;;;19.52;10.52;;;102.80;2022.40;;;;;;5113503;28;20106;-63
2021/12/28 01:34:43;;;;;;;23.20;10.50;;;102.90;2048.00;;;;;;5113431;28;20110;-63
2021/12/28 01:37:10;;;;;;;20.88;10.27;;;102.90;1996.80;;;;;;5113593;28;20028;-63
2021/12/28 01:39:35;;;;;;;24.35;11.75;;;102.80;1971.20;;;;;;5113273;28;20032;-63
2021/12/28 01:42:05;;;;;;;22.90;11.63;;;102.70;1971.20;;;;;;5116967;28;20460;-63
2021/12/28 01:44:32;;;;;;;22.48;11.10;;;102.70;1996.80;;;;;;5117792;28;20478;-63
2021/12/28 01:46:57;;;;;;;36.08;11.20;;;102.60;1996.80;;;;;;5117735;28;20046;-63
2021/12/28 01:49:23;;;;;;;24.73;11.68;;;102.50;2022.40;;;;;;5117467;28;20481;-63
2021/12/28 01:51:50;;;;;;;22.73;10.43;;;102.50;2022.40;;;;;;5117409;28;20130;-63
2021/12/28 01:54:16;;;;;;;27.60;12.00;;;102.50;2048.00;;;;;;5117384;28;20059;-63
2021/12/28 01:56:45;;;;;;;19.58;10.23;;;102.70;2073.60;;;;;;5117407;28;20058;-64
2021/12/28 01:59:13;;;;;;;304.30;21.88;;;102.80;2073.60;;;;;;5117420;28;20145;-65
2021/12/28 02:01:39;;;;;;;24.67;11.15;;;102.80;2201.60;;;;;;5117279;28;20028;-64
2021/12/28 02:04:17;;;;;;;23.83;10.75;;;102.90;2124.80;;;;;;5116965;28;20051;-64
2021/12/28 02:06:43;;;;;;;22.92;11.57;;;103.00;1996.80;;;;;;5098779;28;20027;-64
2021/12/28 02:09:09;;;;;;;23.70;11.65;;;103.00;1996.80;;;;;;5117211;28;20031;-64
2021/12/28 02:11:36;;;;;;;21.20;11.02;;;102.90;2048.00;;;;;;5117047;28;20027;-64
2021/12/28 02:14:05;;;;;;;25.65;12.02;;;102.90;1996.80;;;;;;5117075;28;20019;-64
2021/12/28 02:16:31;;;;;;;21.63;10.40;;;103.00;1971.20;;;;;;5116720;28;20035;-62
2021/12/28 02:18:56;;;;;;;25.98;11.02;;;103.00;2022.40;;;;;;5116729;28;20376;-62
2021/12/28 02:21:22;;;;;;;21.75;10.80;;;103.10;1996.80;;;;;;5116893;28;20016;-63
2021/12/28 02:23:48;;;;;;;23.83;12.05;;;103.10;1971.20;;;;;;5116827;28;20031;-62
2021/12/28 02:26:13;;;;;;;22.15;10.48;;;103.00;2022.40;;;;;;5116933;28;20045;-63
2021/12/28 02:28:39;;;;;;;22.90;11.45;;;103.10;1971.20;;;;;;5116603;28;20361;-62
2021/12/28 02:31:05;;;;;;;23.45;11.40;;;103.10;1945.60;;;;;;5116466;28;20031;-63
2021/12/28 02:33:33;;;;;;;23.20;11.27;;;103.10;1996.80;;;;;;5116600;28;20039;-62
2021/12/28 02:36:02;;;;;;;20.92;10.13;;;103.20;1996.80;;;;;;5116627;28;20030;-64
2021/12/28 02:38:29;;;;;;;17.73;9.85;;;103.00;1945.60;;;;;;5116615;28;20544;-64
2021/12/28 02:40:56;;;;;;;21.58;10.70;;;102.90;1996.80;;;;;;5116449;28;20024;-62
2021/12/28 02:43:22;;;;;;;22.95;12.20;;;103.00;2022.40;;;;;;5116511;28;20469;-61
2021/12/28 02:45:55;;;;;;;24.23;11.52;;;102.90;1971.20;;;;;;5116495;28;20016;-62
2021/12/28 02:48:22;;;;;;;27.13;13.20;;;102.90;2022.40;;;;;;5116089;28;20376;-61
2021/12/28 02:50:54;;;;;;;28.73;12.60;;;102.90;2048.00;;;;;;5116021;28;20026;-62
2021/12/28 02:53:20;;;;;;;25.92;12.35;;;102.90;1996.80;;;;;;5116319;28;20026;-62
2021/12/28 02:55:47;;;;;;;25.05;12.95;;;102.90;1996.80;;;;;;5115933;28;20080;-62
2021/12/28 02:58:26;;;;;;;29.10;14.02;;;102.90;2022.40;;;;;;5107963;28;20023;-62
2021/12/28 03:00:57;;;;;;;23.63;12.02;;;102.90;2048.00;;;;;;5116013;28;20024;-63
2021/12/28 03:03:26;;;;;;;25.48;13.32;;;102.80;2022.40;;;;;;5115900;28;20578;-63
2021/12/28 03:05:54;;;;;;;27.52;12.35;;;102.70;1996.80;;;;;;5115579;28;20475;-63
2021/12/28 03:08:22;;;;;;;27.63;13.02;;;102.80;2022.40;;;;;;5115927;28;20473;-63
2021/12/28 03:10:49;;;;;;;19.75;9.93;;;102.80;2048.00;;;;;;5115943;28;20058;-62
2021/12/28 03:13:24;;;;;;;18.30;9.55;;;102.80;1996.80;;;;;;5116039;28;20031;-63
2021/12/28 03:15:51;;;;;;;17.70;8.77;;;102.80;1996.80;;;;;;5116112;28;20043;-63
2021/12/28 03:18:17;;;;;;;15.95;8.55;;;102.80;1996.80;;;;;;5115862;28;20490;-62
2021/12/28 03:20:44;;;;;;;18.23;10.23;;;102.70;1996.80;;;;;;5115716;28;20019;-63
2021/12/28 03:23:14;;;;;;;16.38;9.50;;;102.70;1996.80;;;;;;5115668;28;20077;-62
2021/12/28 03:25:40;;;;;;;15.30;8.55;;;102.80;1996.80;;;;;;5115678;28;20035;-63
2021/12/28 03:28:06;;;;;;;19.30;10.05;;;102.80;1996.80;;;;;;5115459;28;20038;-63
2021/12/28 03:30:32;;;;;;;16.52;9.27;;;102.90;1996.80;;;;;;5115776;28;20095;-62
2021/12/28 03:32:58;;;;;;;22.17;10.60;;;102.80;2048.00;;;;;;5115072;28;20062;-63
2021/12/28 03:35:25;;;;;;;63.47;12.20;;;102.90;2073.60;;;;;;5115879;28;20072;-62
2021/12/28 03:37:50;;;;;;;32.53;11.23;;;102.90;2176.00;;;;;;5115358;28;20350;-62
2021/12/28 03:40:17;;;;;;;19.95;11.02;;;103.00;2227.20;;;;;;5115443;28;20026;-63
2021/12/28 03:42:42;;;;;;;19.25;10.30;;;103.10;2150.40;;;;;;5115158;28;20115;-63
2021/12/28 03:45:10;;;;;;;22.02;10.48;;;103.20;2048.00;;;;;;5115388;28;20047;-62
2021/12/28 03:47:37;;;;;;;18.27;10.13;;;103.20;1996.80;;;;;;5115334;28;20110;-62
2021/12/28 03:50:05;;;;;;;20.23;10.80;;;103.30;2048.00;;;;;;5115267;28;20103;-63
2021/12/28 03:52:32;;;;;;;19.98;11.07;;;103.30;1996.80;;;;;;5115152;28;20023;-63
2021/12/28 03:54:58;;;;;;;21.33;11.15;;;103.30;1971.20;;;;;;5115162;28;20496;-64
2021/12/28 03:57:23;;;;;;;21.27;12.02;;;103.30;2022.40;;;;;;5115035;28;20027;-63
2021/12/28 03:59:49;;;;;;;23.95;11.52;;;128.00;2022.40;;;;;;5114903;28;20024;-60
2021/12/28 04:02:15;;;;;;;24.88;13.50;;;128.10;2022.40;;;;;;5115198;28;20019;-65
2021/12/28 04:04:41;;;;;;;34.60;12.82;;;128.00;2048.00;;;;;;5114294;28;20107;-68
2021/12/28 04:07:09;;;;;;;25.52;13.20;;;128.00;2048.00;;;;;;5114881;28;20062;-68
2021/12/28 04:12:12;;;;;;;27.83;13.65;;;103.30;2022.40;;;;;;5114850;28;20060;-63
2021/12/28 04:14:38;;;;;;;27.90;13.32;;;128.00;2022.40;;;;;;5114611;28;20052;-63
2021/12/28 04:17:04;;;;;;;32.05;15.93;;;128.00;2022.40;;;;;;5114404;28;20462;-65
2021/12/28 04:19:30;;;;;;;51.72;20.63;;;103.30;2022.40;;;;;;5113835;28;20028;-63
2021/12/28 04:21:56;;;;;;;42.75;19.73;;;128.00;2150.40;;;;;;5114661;28;20052;-70
2021/12/28 04:24:22;;;;;;;48.88;21.13;;;128.00;2124.80;;;;;;5114652;28;20027;-61
2021/12/28 04:26:48;;;;;;;55.70;19.73;;;128.20;2150.40;;;;;;5114554;28;20122;-61
2021/12/28 04:29:14;;;;;;;43.22;18.55;;;128.30;2099.20;;;;;;5114429;28;20042;-64
2021/12/28 04:31:39;;;;;;;40.35;17.23;;;128.30;2099.20;;;;;;5114366;28;20035;-63
2021/12/28 04:34:05;;;;;;;35.42;16.65;;;128.30;2099.20;;;;;;5114426;28;20103;-63
2021/12/28 04:36:31;;;;;;;41.80;18.17;;;128.20;2073.60;;;;;;5113894;28;20095;-63
2021/12/28 04:38:57;;;;;;;35.40;16.38;;;128.20;2073.60;;;;;;5114202;28;20032;-63
2021/12/28 04:41:22;;;;;;;44.10;18.88;;;128.20;2073.60;;;;;;5114380;28;20045;-63
2021/12/28 04:43:49;;;;;;;41.58;18.67;;;128.20;2073.60;;;;;;5095832;28;20396;-62
2021/12/28 04:46:15;;;;;;;41.00;18.83;;;128.20;2073.60;;;;;;5114055;28;20372;-63
2021/12/28 04:48:41;;;;;;;37.58;18.00;;;128.20;2073.60;;;;;;5114263;28;20032;-63
2021/12/28 04:51:06;;;;;;;42.78;20.58;;;128.20;2073.60;;;;;;5114336;28;20543;-61
2021/12/28 04:53:34;;;;;;;47.05;19.77;;;128.20;2073.60;;;;;;5114152;28;20350;-61
2021/12/28 04:56:00;;;;;;;44.95;18.52;;;128.20;2073.60;;;;;;5114321;28;20024;-62
2021/12/28 04:58:26;;;;;;;59.88;25.90;;;128.20;2073.60;;;;;;5113927;28;20028;-62
2021/12/28 05:00:52;;;;;;;73.97;31.45;;;128.20;2073.60;;;;;;5114176;28;20431;-63
2021/12/28 05:03:18;;;;;;;70.53;31.65;;;128.10;2073.60;;;;;;5113860;28;20053;-63
2021/12/28 05:05:46;;;;;;;66.68;30.27;;;128.10;2099.20;;;;;;5113799;28;20107;-63
2021/12/28 05:08:13;;;;;;;58.00;24.25;;;128.20;2073.60;;;;;;5114088;28;20123;-63
2021/12/28 05:10:40;;;;;;;52.55;23.52;;;128.20;2073.60;;;;;;5095317;28;20122;-63
2021/12/28 05:13:07;;;;;;;51.33;22.50;;;128.20;2073.60;;;;;;5114057;28;20048;-63
2021/12/28 05:15:33;;;;;;;49.03;21.60;;;128.20;2073.60;;;;;;5115189;28;20424;-62
2021/12/28 05:17:59;;;;;;;51.67;21.98;;;128.30;2073.60;;;;;;5117971;28;20404;-62
2021/12/28 05:20:25;;;;;;;56.00;23.40;;;128.40;2073.60;;;;;;5118239;28;20027;-63
2021/12/28 05:22:51;;;;;;;55.20;23.02;;;128.40;2048.00;;;;;;5118203;28;20027;-62
2021/12/28 05:25:17;;;;;;;52.65;21.15;;;128.50;2048.00;;;;;;5118511;28;20034;-62
2021/12/28 05:27:42;;;;;;;43.88;19.02;;;128.60;2048.00;;;;;;5117872;28;20350;-63
2021/12/28 05:30:10;;;;;;;45.20;19.38;;;128.60;2048.00;;;;;;5098697;28;20035;-63
2021/12/28 05:32:36;;;;;;;36.72;17.60;;;128.50;2048.00;;;;;;5099041;28;20031;-62
2021/12/28 05:35:04;;;;;;;39.97;18.08;;;128.50;2022.40;;;;;;5099256;28;20032;-63
2021/12/28 05:37:30;;;;;;;35.33;17.13;;;128.50;2048.00;;;;;;5117763;28;20038;-63
2021/12/28 05:39:55;;;;;;;31.67;15.27;;;128.60;2022.40;;;;;;5117756;28;20024;-63
2021/12/28 05:42:22;;;;;;;28.63;15.18;;;128.60;2022.40;;;;;;5117803;28;20465;-61
2021/12/28 05:44:47;;;;;;;26.30;13.30;;;128.60;2022.40;;;;;;5117559;28;20030;-61
2021/12/28 05:47:13;;;;;;;26.98;14.07;;;128.60;1996.80;;;;;;5117708;28;20098;-61
2021/12/28 05:49:39;;;;;;;26.85;13.57;;;128.60;1996.80;;;;;;5117549;28;20028;-61
2021/12/28 05:52:06;;;;;;;28.98;13.77;;;128.60;1996.80;;;;;;5117502;28;20445;-61
2021/12/28 05:54:32;;;;;;;28.08;13.80;;;128.60;1996.80;;;;;;5117122;28;20032;-61
2021/12/28 05:56:58;;;;;;;26.67;13.00;;;128.60;1996.80;;;;;;5098445;28;20035;-61
2021/12/28 05:59:24;;;;;;;27.25;13.25;;;128.60;1996.80;;;;;;5117262;28;20028;-62
2021/12/28 06:01:49;;;;;;;25.05;13.80;;;128.60;1996.80;;;;;;5116852;28;20023;-61
2021/12/28 06:04:15;;;;;;;26.77;14.32;;;128.60;1996.80;;;;;;5117026;28;20024;-62
2021/12/28 06:06:41;;;;;;;24.92;13.60;;;128.60;1996.80;;;;;;5117008;28;20069;-62
2021/12/28 06:09:07;;;;;;;24.52;13.50;;;128.60;1996.80;;;;;;5117016;28;20052;-61
2021/12/28 06:11:32;;;;;;;28.48;15.13;;;128.60;1996.80;;;;;;5115263;28;20032;-62
2021/12/28 06:13:58;;;;;;;26.20;14.18;;;128.60;1996.80;;;;;;5117059;28;20349;-62
2021/12/28 06:16:24;;;;;;;26.58;14.13;;;128.60;1996.80;;;;;;5116779;28;20043;-62
2021/12/28 06:18:50;;;;;;;29.00;14.98;;;128.60;1996.80;;;;;;5116866;28;20035;-62
2021/12/28 06:21:16;;;;;;;32.88;15.10;;;128.60;1996.80;;;;;;5116395;28;20038;-62
2021/12/28 06:23:42;;;;;;;33.80;15.88;;;128.70;1996.80;;;;;;5116981;28;20035;-61
2021/12/28 06:26:08;;;;;;;35.10;18.42;;;128.70;1996.80;;;;;;5116256;28;20404;-61
2021/12/28 06:28:33;;;;;;;32.45;16.35;;;128.70;1971.20;;;;;;5116515;28;20035;-61
2021/12/28 06:30:59;;;;;;;33.75;15.93;;;128.70;1996.80;;;;;;5116447;28;20365;-61
2021/12/28 06:33:26;;;;;;;38.97;18.80;;;128.70;1996.80;;;;;;5116455;28;20027;-61
2021/12/28 06:35:54;;;;;;;46.33;21.15;;;128.80;1996.80;;;;;;5116427;28;20019;-61
2021/12/28 06:38:21;;;;;;;44.50;22.40;;;128.80;1971.20;;;;;;5116838;28;20057;-61
2021/12/28 06:40:47;;;;;;;52.13;25.55;;;128.70;1996.80;;;;;;5116798;28;20427;-61
2021/12/28 06:43:13;;;;;;;44.92;21.58;;;128.80;1996.80;;;;;;5116543;28;20096;-61
2021/12/28 06:45:40;;;;;;;42.92;21.23;;;128.80;1996.80;;;;;;5116559;28;20020;-62
2021/12/28 06:48:06;;;;;;;49.70;22.13;;;128.70;1996.80;;;;;;5114760;28;20442;-62
2021/12/28 06:50:32;;;;;;;46.58;22.27;;;128.70;1996.80;;;;;;5116171;28;20083;-62
2021/12/28 06:52:57;;;;;;;47.45;21.73;;;128.60;2022.40;;;;;;5116097;28;20027;-59
2021/12/28 06:55:23;;;;;;;51.92;21.98;;;128.50;2022.40;;;;;;5116349;28;20024;-59
2021/12/28 06:57:49;;;;;;;51.97;22.95;;;128.40;2048.00;;;;;;5116448;28;20175;-58
2021/12/28 07:00:18;;;;;;;46.55;21.80;;;128.20;2073.60;;;;;;5116137;28;20031;-58
2021/12/28 07:02:44;;;;;;;49.03;22.70;;;128.20;2073.60;;;;;;5116067;28;20098;-58
2021/12/28 07:05:12;;;;;;;63.40;25.02;;;128.20;2073.60;;;;;;5116048;28;20031;-58
2021/12/28 07:07:38;;;;;;;57.42;25.10;;;128.40;2073.60;;;;;;5116058;28;20449;-59
2021/12/28 07:10:08;;;;;;;57.03;25.77;;;128.30;2073.60;;;;;;5116183;28;20040;-62
2021/12/28 07:12:34;;;;;;;52.42;24.92;;;128.20;2073.60;;;;;;5116055;28;20020;-62
2021/12/28 07:15:00;;;;;;;62.65;26.75;;;128.20;2099.20;;;;;;5115866;28;20059;-63
2021/12/28 07:17:28;;;;;;;66.03;28.63;;;128.30;2073.60;;;;;;5116115;28;20052;-62
2021/12/28 07:19:55;;;;;;;71.38;29.45;;;128.30;2073.60;;;;;;5116064;28;20035;-62
2021/12/28 07:22:21;;;;;;;67.35;28.67;;;128.30;2073.60;;;;;;5115752;28;20457;-66
2021/12/28 07:24:47;;;;;;;67.65;31.02;;;128.40;2073.60;;;;;;5115772;28;20019;-62
2021/12/28 07:27:12;;;;;;;73.15;30.58;;;128.40;2073.60;;;;;;5096418;28;20583;-63
2021/12/28 07:29:38;;;;;;;65.22;30.08;;;128.40;2073.60;;;;;;5115702;28;20496;-62
2021/12/28 07:32:06;;;;;;;66.97;28.42;;;128.30;2073.60;;;;;;5115539;28;20027;-63
2021/12/28 07:34:33;;;;;;;67.28;28.40;;;128.30;2099.20;;;;;;5115408;28;20039;-62
2021/12/28 07:36:58;;;;;;;70.65;30.13;;;128.30;2073.60;;;;;;5115481;28;20032;-62
2021/12/28 07:39:24;;;;;;;55.08;25.67;;;128.30;2099.20;;;;;;5108283;28;20085;-62
2021/12/28 07:41:50;;;;;;;64.68;28.40;;;128.30;2073.60;;;;;;5094591;28;20378;-61
2021/12/28 07:44:16;;;;;;;59.63;27.35;;;128.30;2099.20;;;;;;5094379;28;20093;-62
2021/12/28 07:46:42;;;;;;;60.47;25.95;;;128.30;2073.60;;;;;;5094257;28;20051;-62
2021/12/28 07:49:07;;;;;;;57.80;27.00;;;128.40;2073.60;;;;;;5094632;28;20036;-62
2021/12/28 07:51:33;;;;;;;57.35;26.67;;;128.30;2099.20;;;;;;5094911;28;20024;-62
2021/12/28 07:53:59;;;;;;;64.55;29.30;;;128.30;2099.20;;;;;;5094747;28;20081;-62
2021/12/28 07:56:25;;;;;;;61.60;27.25;;;128.50;2073.60;;;;;;5094810;28;20058;-62
2021/12/28 07:58:51;;;;;;;63.63;29.73;;;128.50;2073.60;;;;;;5095204;28;20035;-62
2021/12/28 08:01:17;;;;;;;67.13;28.80;;;128.50;2073.60;;;;;;5094071;28;20020;-62
2021/12/28 08:03:42;;;;;;;71.50;29.00;;;128.60;2048.00;;;;;;5093448;28;20073;-62
2021/12/28 08:06:08;;;;;;;73.88;30.10;;;128.60;2073.60;;;;;;5092987;28;20112;-61
2021/12/28 08:08:34;;;;;;;79.10;32.25;;;128.60;2073.60;;;;;;5100683;28;20046;-61
2021/12/28 08:11:00;;;;;;;86.00;31.67;;;128.60;2048.00;;;;;;5093735;28;20020;-61
2021/12/28 08:13:26;;;;;;;72.15;31.98;;;128.50;2099.20;;;;;;5093755;28;20052;-61
2021/12/28 08:15:52;;;;;;;72.05;31.90;;;128.50;2099.20;;;;;;5093516;28;20135;-61
2021/12/28 08:18:17;;;;;;;70.85;31.85;;;128.50;2099.20;;;;;;5093684;28;20040;-61
2021/12/28 08:20:43;;;;;;;77.85;37.03;;;128.50;2073.60;;;;;;5094013;28;20016;-61
2021/12/28 08:23:09;;;;;;;90.85;39.53;;;128.40;2099.20;;;;;;5094089;28;20107;-62
2021/12/28 08:25:35;;;;;;;80.80;38.60;;;128.30;2099.20;;;;;;5093995;28;20111;-61
2021/12/28 08:28:04;;;;;;;117.25;52.45;;;128.30;2124.80;;;;;;5093434;28;20093;-61
2021/12/28 08:30:31;;;;;;;110.50;48.67;;;128.30;2124.80;;;;;;5092201;28;20077;-63
2021/12/28 08:32:57;;;;;;;96.10;44.83;;;128.30;2124.80;;;;;;5094166;28;20604;-62
2021/12/28 08:35:23;;;;;;;99.80;45.22;;;128.20;2124.80;;;;;;5075641;28;20086;-61
2021/12/28 08:37:49;;;;;;;94.22;43.92;;;128.20;2124.80;;;;;;5093876;28;20489;-62
2021/12/28 08:40:16;;;;;;;98.75;43.55;;;128.20;2124.80;;;;;;5093915;28;20024;-62
2021/12/28 08:42:42;;;;;;;100.22;44.53;;;128.20;2124.80;;;;;;5094186;28;20383;-63
2021/12/28 08:45:08;;;;;;;91.22;39.50;;;128.20;2124.80;;;;;;5093789;28;20047;-63
2021/12/28 08:47:35;;;;;;;89.95;41.03;;;128.30;2124.80;;;;;;5093820;28;20027;-60
2021/12/28 08:50:01;;;;;;;91.18;42.20;;;128.30;2124.80;;;;;;5093407;28;20054;-63
2021/12/28 08:52:27;;;;;;;89.72;39.83;;;128.40;2099.20;;;;;;5093392;28;20154;-61
2021/12/28 08:54:53;;;;;;;80.10;35.90;;;128.40;2099.20;;;;;;5075571;28;20032;-62
2021/12/28 08:57:20;;;;;;;79.10;34.03;;;128.50;2099.20;;;;;;5093640;28;20373;-64
2021/12/28 08:59:46;;;;;;;87.47;38.33;;;128.50;2099.20;;;;;;5093764;28;20035;-65
2021/12/28 09:02:12;;;;;;;100.20;41.08;;;128.50;2099.20;;;;;;5093911;28;20106;-61
2021/12/28 09:04:43;;;;;;;97.70;40.83;;;128.50;2099.20;;;;;;5093606;28;20099;-64
2021/12/28 09:07:10;;;;;;;85.10;38.67;;;128.50;2099.20;;;;;;5074940;28;20089;-65
2021/12/28 09:09:36;;;;;;;98.25;41.13;;;128.50;2099.20;;;;;;5093541;28;20060;-61
2021/12/28 09:12:02;;;;;;;99.88;42.17;;;128.50;2099.20;;;;;;5093993;28;20063;-64
2021/12/28 09:14:28;;;;;;;83.30;37.60;;;128.50;2124.80;;;;;;5093607;28;20103;-60
2021/12/28 09:16:53;;;;;;;89.32;39.30;;;128.50;2099.20;;;;;;5110519;28;20523;-60
2021/12/28 09:19:19;;;;;;;94.20;37.70;;;128.50;2099.20;;;;;;5113717;28;20085;-70
2021/12/28 09:21:45;;;;;;;92.45;42.42;;;128.40;2099.20;;;;;;5113847;28;20027;-60
2021/12/28 09:24:11;;;;;;;104.85;49.10;;;128.40;2124.80;;;;;;5112174;28;20058;-59
2021/12/28 09:26:36;;;;;;;97.57;49.28;;;128.40;2124.80;;;;;;5113839;28;20457;-59
2021/12/28 09:29:03;;;;;;;96.85;48.10;;;128.40;2150.40;;;;;;5113518;28;20169;-59
2021/12/28 09:31:29;;;;;;;97.45;49.42;;;128.50;2124.80;;;;;;5113832;28;20102;-59
2021/12/28 09:33:55;;;;;;;101.78;53.72;;;128.50;2124.80;;;;;;5113835;28;20051;-59
2021/12/28 09:36:21;;;;;;;92.85;49.95;;;128.50;2124.80;;;;;;5113881;28;20419;-59
2021/12/28 09:38:47;;;;;;;81.82;43.03;;;128.40;2124.80;;;;;;5113410;28;20027;-59
2021/12/28 09:41:14;;;;;;;79.70;41.80;;;128.50;2124.80;;;;;;5113756;28;20368;-59
2021/12/28 09:43:41;;;;;;;81.28;42.55;;;128.40;2124.80;;;;;;5113690;28;20031;-59
2021/12/28 09:46:07;;;;;;;85.32;45.05;;;128.40;2150.40;;;;;;5113954;28;20101;-59
2021/12/28 09:48:34;;;;;;;87.35;46.78;;;128.40;2150.40;;;;;;5113545;28;20101;-59
2021/12/28 09:51:00;;;;;;;85.35;46.10;;;128.40;2150.40;;;;;;5114148;28;20107;-59
2021/12/28 09:53:26;;;;;;;89.00;47.47;;;128.40;2124.80;;;;;;5113661;28;20023;-59
2021/12/28 09:55:52;;;;;;;95.65;56.45;;;128.40;2150.40;;;;;;5113529;28;20069;-59
2021/12/28 09:58:18;;;;;;;87.45;49.47;;;128.50;2150.40;;;;;;5113478;28;20066;-59
2021/12/28 10:00:44;;;;;;;73.70;43.75;;;128.50;2124.80;;;;;;5113615;28;20023;-59
2021/12/28 10:03:09;;;;;;;64.57;38.50;;;128.60;2124.80;;;;;;5116823;28;20433;-59
2021/12/28 10:05:35;;;;;;;58.70;35.78;;;128.60;2124.80;;;;;;5117146;28;20076;-59
2021/12/28 10:08:04;;;;;;;59.40;35.15;;;128.60;2124.80;;;;;;5116145;28;20038;-59
2021/12/28 10:10:33;;;;;;;54.95;34.28;;;128.70;2150.40;;;;;;5116844;28;20024;-59
2021/12/28 10:13:03;;;;;;;63.95;34.75;;;128.70;2124.80;;;;;;5117201;28;20384;-59
2021/12/28 10:15:32;;;;;;;74.68;40.55;;;128.60;2150.40;;;;;;5116879;28;20044;-59
2021/12/28 10:18:01;;;;;;;74.78;40.72;;;128.60;2124.80;;;;;;5117154;28;20118;-59
2021/12/28 10:20:37;;;;;;;64.82;35.45;;;128.60;2150.40;;;;;;5116869;28;20020;-59
2021/12/28 10:23:06;;;;;;;59.72;33.25;;;128.50;2150.40;;;;;;5117051;28;20037;-59
2021/12/28 10:25:57;;;;;;;63.33;35.17;;;128.60;2150.40;;;;;;5115598;28;20034;-59
2021/12/28 10:28:38;;;;;;;68.93;37.70;;;128.60;2150.40;;;;;;5116197;28;20401;-59
2021/12/28 10:31:05;;;;;;;71.57;38.45;;;128.60;2150.40;;;;;;5117095;28;20044;-59
2021/12/28 10:33:34;;;;;;;68.20;37.33;;;128.70;2124.80;;;;;;5116840;28;20031;-59
2021/12/28 10:36:03;;;;;;;83.00;42.47;;;128.70;2124.80;;;;;;5116966;28;20465;-59
2021/12/28 10:38:32;;;;;;;75.45;41.85;;;128.60;2150.40;;;;;;5116633;28;20526;-65
2021/12/28 10:41:18;;;;;;;76.95;41.13;;;128.80;2176.00;;;;;;5116107;28;20477;-63
2021/12/28 10:43:46;;;;;;;74.05;39.17;;;154.00;2252.80;;;;;;5098397;28;20026;-66
2021/12/28 10:46:18;;;;;;;76.22;42.58;;;154.30;2227.20;;;;;;5116340;28;20073;-59
2021/12/28 10:48:49;;;;;;;72.10;40.22;;;154.20;2048.00;;;;;;5116312;28;20442;-59
2021/12/28 10:51:26;;;;;;;61.90;37.63;;;154.20;2099.20;;;;;;5116123;28;20051;-60
2021/12/28 10:54:06;;;;;;;71.15;39.08;;;154.20;2099.20;;;;;;5116254;28;20398;-59
2021/12/28 10:56:51;;;;;;;70.28;37.33;;;154.10;2099.20;;;;;;5116473;28;20024;-59
2021/12/28 10:59:23;;;;;;;60.65;36.58;;;154.00;2099.20;;;;;;5116279;28;20027;-59
2021/12/28 11:01:49;;;;;;;61.15;34.70;;;154.00;2073.60;;;;;;5116209;28;20016;-58
2021/12/28 11:04:16;;;;;;;56.15;32.63;;;153.90;2099.20;;;;;;5097171;28;20032;-59
2021/12/28 11:06:51;;;;;;;58.85;33.40;;;153.90;2099.20;;;;;;5097850;28;20084;-58
2021/12/28 11:09:23;;;;;;;55.70;31.42;;;153.80;2124.80;;;;;;5115831;28;20028;-58
2021/12/28 11:11:51;;;;;;;52.78;30.55;;;153.70;2124.80;;;;;;5116082;28;20369;-58
2021/12/28 11:14:24;;;;;;;51.78;31.52;;;153.80;2124.80;;;;;;5116005;28;20023;-59
2021/12/28 11:16:52;;;;;;;59.60;34.88;;;153.80;2124.80;;;;;;5115767;28;20466;-58
2021/12/28 11:19:29;;;;;;;65.32;35.90;;;153.70;2124.80;;;;;;5116055;28;20028;-59
2021/12/28 11:22:02;;;;;;;66.10;35.33;;;153.70;2124.80;;;;;;5116269;28;20061;-59
2021/12/28 11:24:39;;;;;;;66.47;37.70;;;153.70;2124.80;;;;;;5115658;28;20068;-59
2021/12/28 11:27:05;;;;;;;70.93;38.45;;;153.70;2124.80;;;;;;5115573;28;20026;-58
2021/12/28 11:29:34;;;;;;;73.45;37.88;;;153.60;2124.80;;;;;;5115702;28;20036;-59
2021/12/28 11:32:04;;;;;;;64.85;35.55;;;153.60;2150.40;;;;;;5115620;28;20023;-59
2021/12/28 11:34:32;;;;;;;59.72;32.17;;;153.60;2150.40;;;;;;5097318;28;20410;-58
2021/12/28 11:37:08;;;;;;;62.53;34.83;;;153.70;2124.80;;;;;;5115318;28;20031;-59
2021/12/28 11:39:38;;;;;;;65.72;35.78;;;153.80;2124.80;;;;;;5115247;28;20050;-60
2021/12/28 11:42:05;;;;;;;70.03;39.60;;;153.80;2150.40;;;;;;5115246;28;20055;-59
2021/12/28 11:44:32;;;;;;;65.88;38.35;;;153.80;2150.40;;;;;;5115190;28;20035;-59
2021/12/28 11:47:00;;;;;;;67.00;39.72;;;153.80;2124.80;;;;;;5115414;28;20061;-59
2021/12/28 11:49:29;;;;;;;73.63;42.00;;;153.80;2150.40;;;;;;5115216;28;20023;-59
2021/12/28 11:52:00;;;;;;;64.57;39.00;;;153.80;2150.40;;;;;;5114931;28;20023;-61
2021/12/28 11:54:31;;;;;;;57.92;34.70;;;153.90;2150.40;;;;;;5104309;28;20031;-61
2021/12/28 11:57:04;;;;;;;49.63;32.58;;;153.90;2124.80;;;;;;5103401;28;20020;-61
2021/12/28 11:59:30;;;;;;;49.00;29.02;;;153.90;2150.40;;;;;;5100231;28;20031;-61
2021/12/28 12:02:03;;;;;;;56.55;33.83;;;153.90;2124.80;;;;;;5103007;28;20046;-61
2021/12/28 12:04:34;;;;;;;56.22;34.40;;;153.90;2150.40;;;;;;5102688;28;20084;-61